This is the latest recevied weather packets stored in our database for station/object WK7G. If no packets are shown the sender has not sent any weather packets the latest 10 day(s).
| Time | Temp. | Humidity | Pressure | Rain* | Wind** | Luminosity | Snow |
|---|---|---|---|---|---|---|---|
| 1777565165 | 5° C | 73% | 1014.9 hPa | 0 mm | - | 687 W/m² | - |
| 1777564861 | 4.44° C | 74% | 1014.9 hPa | 0 mm | - | 645 W/m² | - |
| 1777564556 | 4.44° C | 74% | 1015.1 hPa | 0 mm | - | 642 W/m² | - |
| 1777564251 | 4.44° C | 75% | 1014.8 hPa | 0 mm | - | 597 W/m² | - |
| 1777563948 | 3.89° C | 75% | 1014.9 hPa | 0 mm | - | 534 W/m² | - |
| 1777563644 | 3.33° C | 76% | 1015.1 hPa | 0 mm | - | 500 W/m² | - |
| 1777563344 | 3.89° C | 75% | 1015.2 hPa | 0 mm | - | 485 W/m² | - |
| 1777563040 | 3.33° C | 77% | 1015.1 hPa | 0 mm | - | 456 W/m² | - |
| 1777562736 | 3.33° C | 78% | 1015.2 hPa | 0 mm | - | 446 W/m² | - |
| 1777562435 | 3.33° C | 75% | 1014.9 hPa | 0 mm | - | 422 W/m² | - |
| 1777562132 | 3.33° C | 75% | 1014.9 hPa | 0 mm | - | 414 W/m² | - |
| 1777561829 | 2.78° C | 75% | 1015.2 hPa | 0 mm | - | 398 W/m² | - |
| 1777561526 | 3.33° C | 74% | 1014.9 hPa | 0 mm | - | 351 W/m² | - |
| 1777561221 | 2.78° C | 75% | 1014.9 hPa | 0 mm | - | 363 W/m² | - |
| 1777560920 | 3.33° C | 73% | 1014.9 hPa | 0 mm | - | 346 W/m² | - |
| 1777560618 | 3.89° C | 71% | 1014.9 hPa | 0 mm | - | 342 W/m² | - |
| 1777560315 | 3.33° C | 73% | 1015.1 hPa | 0 mm | - | 317 W/m² | - |
| 1777560013 | 2.78° C | 76% | 1015.3 hPa | 0 mm | - | 296 W/m² | - |
| 1777559708 | 2.22° C | 76% | 1015.1 hPa | 0 mm | - | 288 W/m² | - |
| 1777559406 | 1.67° C | 77% | 1015.3 hPa | 0 mm | - | 267 W/m² | - |
| 1777559103 | 1.67° C | 78% | 1015.2 hPa | 0 mm | - | 272 W/m² | - |
| 1777558797 | 1.11° C | 78% | 1015.2 hPa | 0 mm | - | 283 W/m² | - |
| 1777558493 | 1.11° C | 77% | 1015.5 hPa | 0 mm | - | 297 W/m² | - |
| 1777558190 | 1.11° C | 79% | 1015.4 hPa | 0 mm | - | 271 W/m² | - |
| 1777557886 | 0.56° C | 82% | 1015.1 hPa | 0 mm | - | 155 W/m² | - |
* Rain latest hour (hover to see other rain measurements)
** Current wind speed in m/s (hover to see current wind gust speed)